sensor_id;sensor_type;location;lat;lon;timestamp;pressure;altitude;pressure_sealevel;temperature;humidity
60437;BME280;46289;51.992;4.498;2023-03-23T00:01:30;100315.69;;;11.37;83.61
60437;BME280;46289;51.992;4.498;2023-03-23T00:03:52;100309.41;;;11.39;83.14
60437;BME280;46289;51.992;4.498;2023-03-23T00:06:40;100303.41;;;11.37;83.33
60437;BME280;46289;51.992;4.498;2023-03-23T00:09:13;100312.03;;;11.39;83.38
60437;BME280;46289;51.992;4.498;2023-03-23T00:11:45;100308.41;;;11.42;82.93
60437;BME280;46289;51.992;4.498;2023-03-23T00:14:41;100306.59;;;11.42;82.89
60437;BME280;46289;51.992;4.498;2023-03-23T00:17:03;100304.41;;;11.35;83.63
60437;BME280;46289;51.992;4.498;2023-03-23T00:22:07;100298.81;;;11.41;82.79
60437;BME280;46289;51.992;4.498;2023-03-23T00:24:39;100293.72;;;11.38;83.06
60437;BME280;46289;51.992;4.498;2023-03-23T00:27:06;100291.25;;;11.35;83.34
60437;BME280;46289;51.992;4.498;2023-03-23T00:29:41;100287.69;;;11.36;82.62
60437;BME280;46289;51.992;4.498;2023-03-23T00:32:21;100285.66;;;11.41;82.43
60437;BME280;46289;51.992;4.498;2023-03-23T00:34:44;100280.63;;;11.36;82.95
60437;BME280;46289;51.992;4.498;2023-03-23T00:37:21;100288.53;;;11.36;82.83
60437;BME280;46289;51.992;4.498;2023-03-23T00:39:52;100280.75;;;11.35;82.61
60437;BME280;46289;51.992;4.498;2023-03-23T00:44:35;100272.06;;;11.33;82.72
60437;BME280;46289;51.992;4.498;2023-03-23T00:47:06;100269.59;;;11.30;82.95
60437;BME280;46289;51.992;4.498;2023-03-23T00:49:28;100266.81;;;11.33;82.87
60437;BME280;46289;51.992;4.498;2023-03-23T00:51:49;100267.09;;;11.27;83.23
60437;BME280;46289;51.992;4.498;2023-03-23T00:54:25;100274.09;;;11.28;82.97
60437;BME280;46289;51.992;4.498;2023-03-23T00:57:04;100259.66;;;11.19;82.91
60437;BME280;46289;51.992;4.498;2023-03-23T00:59:38;100281.28;;;11.24;82.92
60437;BME280;46289;51.992;4.498;2023-03-23T01:02:12;100283.75;;;11.27;83.05
60437;BME280;46289;51.992;4.498;2023-03-23T01:04:54;100285.13;;;11.34;82.48
60437;BME280;46289;51.992;4.498;2023-03-23T01:07:33;100260.00;;;11.29;82.66
60437;BME280;46289;51.992;4.498;2023-03-23T01:10:02;100267.09;;;11.27;83.07
60437;BME280;46289;51.992;4.498;2023-03-23T01:12:26;100237.44;;;11.25;83.05
60437;BME280;46289;51.992;4.498;2023-03-23T01:15:07;100243.59;;;11.24;82.95
60437;BME280;46289;51.992;4.498;2023-03-23T01:17:23;100233.00;;;11.25;82.57
60437;BME280;46289;51.992;4.498;2023-03-23T01:19:47;100243.38;;;11.28;82.48
60437;BME280;46289;51.992;4.498;2023-03-23T01:22:03;100243.31;;;11.30;82.59
60437;BME280;46289;51.992;4.498;2023-03-23T01:24:32;100233.63;;;11.30;82.43
60437;BME280;46289;51.992;4.498;2023-03-23T01:26:53;100231.22;;;11.26;82.67
60437;BME280;46289;51.992;4.498;2023-03-23T01:29:26;100237.25;;;11.28;82.55
60437;BME280;46289;51.992;4.498;2023-03-23T01:31:50;100233.94;;;11.24;83.04
60437;BME280;46289;51.992;4.498;2023-03-23T01:34:12;100239.97;;;11.26;82.52
60437;BME280;46289;51.992;4.498;2023-03-23T01:36:50;100241.81;;;11.24;82.74
60437;BME280;46289;51.992;4.498;2023-03-23T01:39:04;100242.69;;;11.25;82.77
60437;BME280;46289;51.992;4.498;2023-03-23T01:41:20;100230.88;;;11.32;82.56
60437;BME280;46289;51.992;4.498;2023-03-23T01:43:52;100221.84;;;11.37;82.35
60437;BME280;46289;51.992;4.498;2023-03-23T01:45:59;100230.03;;;11.31;82.77
60437;BME280;46289;51.992;4.498;2023-03-23T01:48:19;100223.88;;;11.32;82.86
60437;BME280;46289;51.992;4.498;2023-03-23T01:50:45;100218.69;;;11.31;82.87
60437;BME280;46289;51.992;4.498;2023-03-23T01:52:55;100207.91;;;11.35;82.52
60437;BME280;46289;51.992;4.498;2023-03-23T01:55:14;100211.81;;;11.28;82.94
60437;BME280;46289;51.992;4.498;2023-03-23T01:57:22;100212.81;;;11.26;83.20
60437;BME280;46289;51.992;4.498;2023-03-23T01:59:40;100221.25;;;11.32;82.78
60437;BME280;46289;51.992;4.498;2023-03-23T02:01:49;100211.63;;;11.31;82.69
60437;BME280;46289;51.992;4.498;2023-03-23T02:03:58;100213.06;;;11.21;83.24
60437;BME280;46289;51.992;4.498;2023-03-23T02:06:10;100224.28;;;11.25;83.27
60437;BME280;46289;51.992;4.498;2023-03-23T02:08:26;100221.78;;;11.21;83.63
60437;BME280;46289;51.992;4.498;2023-03-23T02:10:35;100219.88;;;11.25;83.49
60437;BME280;46289;51.992;4.498;2023-03-23T02:12:41;100219.09;;;11.23;83.35
60437;BME280;46289;51.992;4.498;2023-03-23T02:14:46;100221.66;;;11.25;83.65
60437;BME280;46289;51.992;4.498;2023-03-23T02:17:04;100225.34;;;11.20;83.88
60437;BME280;46289;51.992;4.498;2023-03-23T02:19:37;100235.31;;;11.31;83.33
60437;BME280;46289;51.992;4.498;2023-03-23T02:22:02;100224.00;;;11.29;83.39
60437;BME280;46289;51.992;4.498;2023-03-23T02:24:49;100214.97;;;11.35;83.14
60437;BME280;46289;51.992;4.498;2023-03-23T02:27:03;100218.44;;;11.35;82.89
60437;BME280;46289;51.992;4.498;2023-03-23T02:29:36;100217.66;;;11.33;83.19
60437;BME280;46289;51.992;4.498;2023-03-23T02:32:04;100214.38;;;11.30;83.36
60437;BME280;46289;51.992;4.498;2023-03-23T02:34:25;100202.66;;;11.35;82.76
60437;BME280;46289;51.992;4.498;2023-03-23T02:36:36;100215.03;;;11.33;82.95
60437;BME280;46289;51.992;4.498;2023-03-23T02:38:53;100211.63;;;11.31;83.33
60437;BME280;46289;51.992;4.498;2023-03-23T02:41:04;100211.75;;;11.30;83.27
60437;BME280;46289;51.992;4.498;2023-03-23T02:43:14;100211.63;;;11.31;83.03
60437;BME280;46289;51.992;4.498;2023-03-23T02:45:21;100207.22;;;11.32;83.33
60437;BME280;46289;51.992;4.498;2023-03-23T02:47:29;100206.38;;;11.31;83.43
60437;BME280;46289;51.992;4.498;2023-03-23T02:49:40;100218.75;;;11.29;83.73
60437;BME280;46289;51.992;4.498;2023-03-23T02:51:49;100210.88;;;11.29;83.71
60437;BME280;46289;51.992;4.498;2023-03-23T02:53:58;100202.72;;;11.34;82.94
60437;BME280;46289;51.992;4.498;2023-03-23T02:56:04;100206.47;;;11.30;83.12
60437;BME280;46289;51.992;4.498;2023-03-23T02:58:14;100195.38;;;11.40;82.60
60437;BME280;46289;51.992;4.498;2023-03-23T03:00:25;100194.78;;;11.35;83.05
60437;BME280;46289;51.992;4.498;2023-03-23T03:02:35;100214.47;;;11.44;82.61
60437;BME280;46289;51.992;4.498;2023-03-23T03:04:50;100207.56;;;11.41;82.74
60437;BME280;46289;51.992;4.498;2023-03-23T03:07:09;100197.31;;;11.37;82.95
60437;BME280;46289;51.992;4.498;2023-03-23T03:09:32;100191.78;;;11.41;82.87
60437;BME280;46289;51.992;4.498;2023-03-23T03:11:48;100192.13;;;11.35;83.07
60437;BME280;46289;51.992;4.498;2023-03-23T03:13:58;100206.38;;;11.31;83.61
60437;BME280;46289;51.992;4.498;2023-03-23T03:16:09;100211.19;;;11.23;84.32
60437;BME280;46289;51.992;4.498;2023-03-23T03:18:21;100206.28;;;11.17;86.19
60437;BME280;46289;51.992;4.498;2023-03-23T03:27:29;100206.94;;;10.87;88.32
60437;BME280;46289;51.992;4.498;2023-03-23T03:33:38;100208.97;;;10.82;88.86
60437;BME280;46289;51.992;4.498;2023-03-23T03:37:16;100206.66;;;10.76;89.46
60437;BME280;46289;51.992;4.498;2023-03-23T03:55:47;100217.53;;;10.68;88.98
60437;BME280;46289;51.992;4.498;2023-03-23T03:58:46;100211.00;;;10.77;88.14
60437;BME280;46289;51.992;4.498;2023-03-23T04:01:36;100206.66;;;10.76;88.01
60437;BME280;46289;51.992;4.498;2023-03-23T04:07:16;100224.31;;;10.90;86.34
60437;BME280;46289;51.992;4.498;2023-03-23T04:10:20;100223.63;;;10.86;86.63
60437;BME280;46289;51.992;4.498;2023-03-23T04:13:27;100232.75;;;10.79;86.96
60437;BME280;46289;51.992;4.498;2023-03-23T04:23:19;100231.69;;;10.83;85.61
60437;BME280;46289;51.992;4.498;2023-03-23T04:26:57;100237.88;;;10.82;86.17
60437;BME280;46289;51.992;4.498;2023-03-23T04:29:36;100226.09;;;10.89;85.68
60437;BME280;46289;51.992;4.498;2023-03-23T04:32:17;100257.75;;;10.88;85.71
60437;BME280;46289;51.992;4.498;2023-03-23T04:35:06;100250.88;;;10.85;86.40
60437;BME280;46289;51.992;4.498;2023-03-23T04:38:00;100268.66;;;10.80;86.16
60437;BME280;46289;51.992;4.498;2023-03-23T04:41:08;100274.28;;;10.72;86.57
60437;BME280;46289;51.992;4.498;2023-03-23T04:46:49;100275.34;;;10.68;86.97
60437;BME280;46289;51.992;4.498;2023-03-23T04:53:50;100274.66;;;10.65;87.04
60437;BME280;46289;51.992;4.498;2023-03-23T06:32:45;100363.31;;;10.42;87.73
60437;BME280;46289;51.992;4.498;2023-03-23T06:42:36;100355.44;;;10.42;86.85
60437;BME280;46289;51.992;4.498;2023-03-23T06:45:02;100375.59;;;10.42;86.82
60437;BME280;46289;51.992;4.498;2023-03-23T06:48:11;100400.03;;;10.44;86.54
60437;BME280;46289;51.992;4.498;2023-03-23T06:57:06;100387.59;;;10.47;85.57
60437;BME280;46289;51.992;4.498;2023-03-23T06:59:58;100382.44;;;10.46;85.77
60437;BME280;46289;51.992;4.498;2023-03-23T07:02:37;100384.91;;;10.49;86.05
60437;BME280;46289;51.992;4.498;2023-03-23T07:05:18;100367.38;;;10.49;85.56
60437;BME280;46289;51.992;4.498;2023-03-23T07:08:05;100388.53;;;10.46;86.16
60437;BME280;46289;51.992;4.498;2023-03-23T07:10:31;100390.22;;;10.47;85.63
60437;BME280;46289;51.992;4.498;2023-03-23T07:13:14;100384.06;;;10.48;85.66
60437;BME280;46289;51.992;4.498;2023-03-23T07:15:31;100389.31;;;10.48;85.38
60437;BME280;46289;51.992;4.498;2023-03-23T07:18:07;100391.16;;;10.46;85.06
60437;BME280;46289;51.992;4.498;2023-03-23T07:20:30;100397.34;;;10.45;85.76
60437;BME280;46289;51.992;4.498;2023-03-23T07:23:07;100394.34;;;10.53;85.78
60437;BME280;46289;51.992;4.498;2023-03-23T07:25:36;100397.69;;;10.57;85.63
60437;BME280;46289;51.992;4.498;2023-03-23T07:28:00;100395.06;;;10.57;85.51
60437;BME280;46289;51.992;4.498;2023-03-23T07:30:25;100404.16;;;10.49;86.22
60437;BME280;46289;51.992;4.498;2023-03-23T07:32:36;100401.66;;;10.46;86.00
60437;BME280;46289;51.992;4.498;2023-03-23T07:34:49;100402.72;;;10.42;86.21
60437;BME280;46289;51.992;4.498;2023-03-23T07:37:03;100387.91;;;10.41;85.22
60437;BME280;46289;51.992;4.498;2023-03-23T07:39:23;100399.53;;;10.54;85.63
60437;BME280;46289;51.992;4.498;2023-03-23T07:41:38;100402.91;;;10.75;84.98
60437;BME280;46289;51.992;4.498;2023-03-23T07:44:23;100409.78;;;10.78;84.56
60437;BME280;46289;51.992;4.498;2023-03-23T07:46:50;100400.09;;;11.15;83.89
60437;BME280;46289;51.992;4.498;2023-03-23T07:49:04;100396.53;;;11.16;83.99
60437;BME280;46289;51.992;4.498;2023-03-23T07:51:42;100411.69;;;11.11;83.76
60437;BME280;46289;51.992;4.498;2023-03-23T07:53:57;100409.69;;;10.98;83.74
60437;BME280;46289;51.992;4.498;2023-03-23T07:56:16;100407.06;;;10.98;83.49
60437;BME280;46289;51.992;4.498;2023-03-23T07:59:06;100415.47;;;10.88;83.91
60437;BME280;46289;51.992;4.498;2023-03-23T08:01:44;100416.47;;;10.85;84.07
60437;BME280;46289;51.992;4.498;2023-03-23T08:04:32;100418.94;;;10.88;84.21
60437;BME280;46289;51.992;4.498;2023-03-23T08:07:42;100424.50;;;10.82;84.56
60437;BME280;46289;51.992;4.498;2023-03-23T08:10:56;100436.25;;;10.92;84.21
60437;BME280;46289;51.992;4.498;2023-03-23T08:13:51;100446.75;;;10.92;84.61
60437;BME280;46289;51.992;4.498;2023-03-23T09:24:22;100457.19;;;12.33;74.09
60437;BME280;46289;51.992;4.498;2023-03-23T09:27:12;100448.44;;;12.96;72.92
60437;BME280;46289;51.992;4.498;2023-03-23T09:29:34;100464.91;;;13.15;71.45
60437;BME280;46289;51.992;4.498;2023-03-23T09:31:55;100456.41;;;13.10;70.97
60437;BME280;46289;51.992;4.498;2023-03-23T09:34:27;100462.22;;;13.01;71.24
60437;BME280;46289;51.992;4.498;2023-03-23T09:36:43;100469.97;;;13.04;71.73
60437;BME280;46289;51.992;4.498;2023-03-23T09:39:00;100467.72;;;13.28;70.54
60437;BME280;46289;51.992;4.498;2023-03-23T09:41:42;100473.44;;;13.05;71.49
60437;BME280;46289;51.992;4.498;2023-03-23T09:44:05;100473.56;;;13.49;70.50
60437;BME280;46289;51.992;4.498;2023-03-23T09:46:27;100498.78;;;13.07;69.78
60437;BME280;46289;51.992;4.498;2023-03-23T09:48:49;100473.41;;;13.21;70.58
60437;BME280;46289;51.992;4.498;2023-03-23T09:51:34;100485.41;;;13.42;70.10
60437;BME280;46289;51.992;4.498;2023-03-23T09:54:17;100488.19;;;13.55;70.05
60437;BME280;46289;51.992;4.498;2023-03-23T09:56:49;100503.56;;;12.85;70.45
60437;BME280;46289;51.992;4.498;2023-03-23T09:59:08;100491.56;;;12.79;70.40
60437;BME280;46289;51.992;4.498;2023-03-23T10:01:28;100500.91;;;12.85;69.73
60437;BME280;46289;51.992;4.498;2023-03-23T10:03:40;100495.81;;;12.98;70.28
60437;BME280;46289;51.992;4.498;2023-03-23T10:05:48;100491.66;;;13.09;70.25
60437;BME280;46289;51.992;4.498;2023-03-23T10:07:57;100496.69;;;12.98;70.99
60437;BME280;46289;51.992;4.498;2023-03-23T10:10:12;100503.19;;;13.54;69.84
60437;BME280;46289;51.992;4.498;2023-03-23T10:12:29;100508.88;;;13.77;68.77
60437;BME280;46289;51.992;4.498;2023-03-23T10:14:54;100511.03;;;13.40;69.46
60437;BME280;46289;51.992;4.498;2023-03-23T10:17:16;100513.63;;;13.86;68.15
60437;BME280;46289;51.992;4.498;2023-03-23T10:19:35;100510.78;;;14.19;67.32
60437;BME280;46289;51.992;4.498;2023-03-23T10:21:52;100501.84;;;13.92;67.24
60437;BME280;46289;51.992;4.498;2023-03-23T10:24:01;100513.25;;;13.92;67.04
60437;BME280;46289;51.992;4.498;2023-03-23T10:26:11;100514.66;;;13.83;65.99
60437;BME280;46289;51.992;4.498;2023-03-23T10:28:35;100519.72;;;13.42;66.62
60437;BME280;46289;51.992;4.498;2023-03-23T10:30:52;100515.56;;;13.38;67.25
60437;BME280;46289;51.992;4.498;2023-03-23T10:33:03;100513.00;;;13.21;67.17
60437;BME280;46289;51.992;4.498;2023-03-23T10:35:17;100509.34;;;13.23;67.87
60437;BME280;46289;51.992;4.498;2023-03-23T10:37:25;100511.31;;;13.20;66.60
60437;BME280;46289;51.992;4.498;2023-03-23T10:39:37;100500.00;;;13.33;66.59
60437;BME280;46289;51.992;4.498;2023-03-23T10:41:43;100511.22;;;13.37;66.13
60437;BME280;46289;51.992;4.498;2023-03-23T10:43:51;100517.44;;;13.36;67.99
60437;BME280;46289;51.992;4.498;2023-03-23T10:46:02;100519.06;;;13.07;66.49
60437;BME280;46289;51.992;4.498;2023-03-23T10:48:33;100526.44;;;13.16;67.03
60437;BME280;46289;51.992;4.498;2023-03-23T10:50:45;100518.53;;;13.16;67.18
60437;BME280;46289;51.992;4.498;2023-03-23T10:52:56;100526.63;;;13.29;67.55
60437;BME280;46289;51.992;4.498;2023-03-23T10:55:07;100510.63;;;13.32;66.78
60437;BME280;46289;51.992;4.498;2023-03-23T10:57:22;100501.78;;;13.63;67.08
60437;BME280;46289;51.992;4.498;2023-03-23T10:59:31;100503.44;;;13.80;64.76
60437;BME280;46289;51.992;4.498;2023-03-23T11:01:36;100502.00;;;13.44;65.39
60437;BME280;46289;51.992;4.498;2023-03-23T11:03:42;100505.53;;;13.29;64.55
60437;BME280;46289;51.992;4.498;2023-03-23T11:05:53;100506.78;;;14.12;64.91
60437;BME280;46289;51.992;4.498;2023-03-23T11:08:01;100499.06;;;14.66;64.07
60437;BME280;46289;51.992;4.498;2023-03-23T11:10:20;100503.06;;;14.59;63.25
60437;BME280;46289;51.992;4.498;2023-03-23T11:12:35;100509.81;;;14.78;63.75
60437;BME280;46289;51.992;4.498;2023-03-23T11:14:43;100507.06;;;14.93;62.11
60437;BME280;46289;51.992;4.498;2023-03-23T11:16:51;100510.88;;;15.17;62.84
60437;BME280;46289;51.992;4.498;2023-03-23T11:19:13;100508.41;;;15.13;61.35
60437;BME280;46289;51.992;4.498;2023-03-23T11:21:23;100520.00;;;14.98;61.18
60437;BME280;46289;51.992;4.498;2023-03-23T11:23:39;100509.91;;;14.90;61.13
60437;BME280;46289;51.992;4.498;2023-03-23T11:26:16;100503.19;;;14.85;61.31
60437;BME280;46289;51.992;4.498;2023-03-23T11:28:29;100500.00;;;14.51;62.48
60437;BME280;46289;51.992;4.498;2023-03-23T11:30:38;100501.00;;;14.91;62.70
60437;BME280;46289;51.992;4.498;2023-03-23T11:32:47;100498.84;;;15.11;62.35
60437;BME280;46289;51.992;4.498;2023-03-23T11:34:56;100492.09;;;14.92;61.59
60437;BME280;46289;51.992;4.498;2023-03-23T11:37:25;100496.75;;;15.16;61.56
60437;BME280;46289;51.992;4.498;2023-03-23T11:39:48;100491.47;;;15.56;60.72
60437;BME280;46289;51.992;4.498;2023-03-23T11:41:57;100490.63;;;15.83;60.78
60437;BME280;46289;51.992;4.498;2023-03-23T11:44:16;100493.28;;;16.08;59.67
60437;BME280;46289;51.992;4.498;2023-03-23T11:46:38;100490.06;;;15.37;60.26
60437;BME280;46289;51.992;4.498;2023-03-23T11:48:49;100504.41;;;15.88;59.91
60437;BME280;46289;51.992;4.498;2023-03-23T11:51:01;100507.06;;;15.21;59.11
60437;BME280;46289;51.992;4.498;2023-03-23T11:53:13;100505.41;;;15.05;60.86
60437;BME280;46289;51.992;4.498;2023-03-23T11:55:25;100517.63;;;14.93;60.41
60437;BME280;46289;51.992;4.498;2023-03-23T11:57:32;100512.47;;;14.78;61.61
60437;BME280;46289;51.992;4.498;2023-03-23T11:59:46;100515.94;;;14.49;61.89
60437;BME280;46289;51.992;4.498;2023-03-23T12:02:00;100508.22;;;14.61;61.93
60437;BME280;46289;51.992;4.498;2023-03-23T12:04:54;100520.78;;;14.43;60.44
60437;BME280;46289;51.992;4.498;2023-03-23T12:07:24;100503.31;;;14.55;60.89
60437;BME280;46289;51.992;4.498;2023-03-23T12:09:59;100516.91;;;14.77;60.07
60437;BME280;46289;51.992;4.498;2023-03-23T12:12:14;100512.88;;;14.57;60.28
60437;BME280;46289;51.992;4.498;2023-03-23T12:14:29;100505.94;;;14.69;60.64
60437;BME280;46289;51.992;4.498;2023-03-23T12:19:39;100505.66;;;15.15;59.53
60437;BME280;46289;51.992;4.498;2023-03-23T12:21:57;100503.81;;;15.03;59.51
60437;BME280;46289;51.992;4.498;2023-03-23T12:24:16;100500.09;;;14.78;60.39
60437;BME280;46289;51.992;4.498;2023-03-23T12:26:31;100501.22;;;14.74;61.20
60437;BME280;46289;51.992;4.498;2023-03-23T12:28:52;100495.19;;;14.72;61.61
60437;BME280;46289;51.992;4.498;2023-03-23T12:31:04;100501.63;;;14.68;61.92
60437;BME280;46289;51.992;4.498;2023-03-23T12:33:27;100502.38;;;14.56;61.71
60437;BME280;46289;51.992;4.498;2023-03-23T12:35:50;100492.72;;;14.83;62.09
60437;BME280;46289;51.992;4.498;2023-03-23T12:38:26;100484.22;;;14.78;62.39
60437;BME280;46289;51.992;4.498;2023-03-23T12:40:48;100481.16;;;14.84;62.11
60437;BME280;46289;51.992;4.498;2023-03-23T12:43:03;100491.69;;;14.71;62.02
60437;BME280;46289;51.992;4.498;2023-03-23T12:45:19;100471.75;;;14.66;62.94
60437;BME280;46289;51.992;4.498;2023-03-23T12:47:35;100477.59;;;14.85;62.66
60437;BME280;46289;51.992;4.498;2023-03-23T12:49:52;100479.44;;;14.56;61.57
60437;BME280;46289;51.992;4.498;2023-03-23T12:51:59;100492.44;;;14.74;61.92
60437;BME280;46289;51.992;4.498;2023-03-23T12:54:15;100489.16;;;14.70;62.71
60437;BME280;46289;51.992;4.498;2023-03-23T12:56:29;100485.34;;;14.74;63.60
60437;BME280;46289;51.992;4.498;2023-03-23T12:58:41;100490.56;;;14.47;62.59
60437;BME280;46289;51.992;4.498;2023-03-23T13:00:59;100503.97;;;14.58;62.85
60437;BME280;46289;51.992;4.498;2023-03-23T13:03:15;100502.28;;;14.57;63.82
60437;BME280;46289;51.992;4.498;2023-03-23T13:05:45;100527.28;;;14.52;63.81
60437;BME280;46289;51.992;4.498;2023-03-23T13:08:00;100510.69;;;14.35;61.75
60437;BME280;46289;51.992;4.498;2023-03-23T13:10:14;100535.56;;;14.45;61.82
60437;BME280;46289;51.992;4.498;2023-03-23T13:12:32;100505.22;;;14.53;61.32
60437;BME280;46289;51.992;4.498;2023-03-23T13:14:50;100490.84;;;14.71;60.26
60437;BME280;46289;51.992;4.498;2023-03-23T13:17:05;100490.47;;;14.77;60.10
60437;BME280;46289;51.992;4.498;2023-03-23T13:19:17;100503.28;;;14.69;60.25
60437;BME280;46289;51.992;4.498;2023-03-23T13:21:32;100515.41;;;14.73;61.43
60437;BME280;46289;51.992;4.498;2023-03-23T13:23:41;100509.38;;;14.57;61.76
60437;BME280;46289;51.992;4.498;2023-03-23T13:25:54;100506.97;;;14.66;60.80
60437;BME280;46289;51.992;4.498;2023-03-23T13:28:01;100504.56;;;15.05;60.96
60437;BME280;46289;51.992;4.498;2023-03-23T13:30:18;100506.66;;;15.00;60.38
60437;BME280;46289;51.992;4.498;2023-03-23T13:32:34;100521.09;;;15.35;59.79
60437;BME280;46289;51.992;4.498;2023-03-23T13:34:55;100516.56;;;15.50;59.68
60437;BME280;46289;51.992;4.498;2023-03-23T13:37:08;100509.72;;;15.61;59.04
60437;BME280;46289;51.992;4.498;2023-03-23T13:39:21;100514.16;;;15.20;59.29
60437;BME280;46289;51.992;4.498;2023-03-23T13:41:28;100516.88;;;14.91;59.28
60437;BME280;46289;51.992;4.498;2023-03-23T13:43:41;100517.84;;;14.90;60.42
60437;BME280;46289;51.992;4.498;2023-03-23T13:45:47;100517.38;;;14.84;60.56
60437;BME280;46289;51.992;4.498;2023-03-23T13:48:03;100510.31;;;14.70;61.01
60437;BME280;46289;51.992;4.498;2023-03-23T13:50:12;100497.88;;;14.85;60.50
60437;BME280;46289;51.992;4.498;2023-03-23T13:52:36;100496.91;;;15.00;60.17
60437;BME280;46289;51.992;4.498;2023-03-23T13:54:43;100485.06;;;15.06;59.80
60437;BME280;46289;51.992;4.498;2023-03-23T13:56:54;100492.34;;;15.17;60.37
60437;BME280;46289;51.992;4.498;2023-03-23T13:59:05;100496.97;;;14.86;58.57
60437;BME280;46289;51.992;4.498;2023-03-23T14:01:14;100488.41;;;14.95;59.75
60437;BME280;46289;51.992;4.498;2023-03-23T14:03:25;100484.22;;;15.05;60.18
60437;BME280;46289;51.992;4.498;2023-03-23T14:05:37;100497.91;;;15.39;58.78
60437;BME280;46289;51.992;4.498;2023-03-23T14:07:57;100489.97;;;15.39;58.16
60437;BME280;46289;51.992;4.498;2023-03-23T14:10:06;100486.47;;;15.39;57.70
60437;BME280;46289;51.992;4.498;2023-03-23T14:12:17;100485.28;;;15.30;58.73
60437;BME280;46289;51.992;4.498;2023-03-23T14:14:27;100504.34;;;15.08;59.63
60437;BME280;46289;51.992;4.498;2023-03-23T14:16:38;100504.91;;;14.86;60.36
60437;BME280;46289;51.992;4.498;2023-03-23T14:18:51;100485.09;;;14.64;61.29
60437;BME280;46289;51.992;4.498;2023-03-23T14:20:57;100463.91;;;14.79;60.40
60437;BME280;46289;51.992;4.498;2023-03-23T14:23:13;100455.66;;;15.10;60.63
60437;BME280;46289;51.992;4.498;2023-03-23T14:25:27;100448.13;;;15.04;60.65
60437;BME280;46289;51.992;4.498;2023-03-23T14:27:36;100451.06;;;15.27;60.14
60437;BME280;46289;51.992;4.498;2023-03-23T14:29:41;100418.72;;;15.49;58.48
60437;BME280;46289;51.992;4.498;2023-03-23T14:31:52;100418.75;;;15.74;59.18
60437;BME280;46289;51.992;4.498;2023-03-23T14:34:03;100412.25;;;15.53;58.56
60437;BME280;46289;51.992;4.498;2023-03-23T14:36:11;100408.66;;;15.54;58.52
60437;BME280;46289;51.992;4.498;2023-03-23T14:38:20;100418.03;;;15.85;58.51
60437;BME280;46289;51.992;4.498;2023-03-23T14:40:27;100399.00;;;15.66;58.10
60437;BME280;46289;51.992;4.498;2023-03-23T14:42:35;100410.97;;;15.46;57.71
60437;BME280;46289;51.992;4.498;2023-03-23T14:44:43;100410.88;;;15.47;58.04
60437;BME280;46289;51.992;4.498;2023-03-23T14:46:53;100411.34;;;15.27;59.73
60437;BME280;46289;51.992;4.498;2023-03-23T14:49:03;100427.47;;;15.36;59.89
60437;BME280;46289;51.992;4.498;2023-03-23T14:51:17;100415.97;;;15.63;60.64
60437;BME280;46289;51.992;4.498;2023-03-23T14:53:30;100427.56;;;15.75;59.99
60437;BME280;46289;51.992;4.498;2023-03-23T14:55:36;100429.25;;;15.89;60.33
60437;BME280;46289;51.992;4.498;2023-03-23T14:57:44;100431.78;;;16.03;60.28
60437;BME280;46289;51.992;4.498;2023-03-23T14:59:52;100430.22;;;15.75;60.56
60437;BME280;46289;51.992;4.498;2023-03-23T15:02:00;100424.25;;;15.71;59.01
60437;BME280;46289;51.992;4.498;2023-03-23T15:04:10;100411.97;;;15.70;59.63
60437;BME280;46289;51.992;4.498;2023-03-23T15:06:21;100409.91;;;15.61;60.46
60437;BME280;46289;51.992;4.498;2023-03-23T15:08:33;100417.31;;;15.56;60.66
60437;BME280;46289;51.992;4.498;2023-03-23T15:10:38;100411.81;;;15.46;61.18
60437;BME280;46289;51.992;4.498;2023-03-23T15:12:46;100387.03;;;15.60;61.37
60437;BME280;46289;51.992;4.498;2023-03-23T15:14:53;100392.66;;;15.55;61.54
60437;BME280;46289;51.992;4.498;2023-03-23T15:17:00;100385.03;;;15.64;60.84
60437;BME280;46289;51.992;4.498;2023-03-23T15:19:11;100376.22;;;15.25;60.52
60437;BME280;46289;51.992;4.498;2023-03-23T15:21:23;100376.44;;;15.60;59.85
60437;BME280;46289;51.992;4.498;2023-03-23T15:23:32;100364.88;;;15.61;59.49
60437;BME280;46289;51.992;4.498;2023-03-23T15:25:37;100374.06;;;15.70;58.96
60437;BME280;46289;51.992;4.498;2023-03-23T15:27:49;100379.53;;;15.67;58.78
60437;BME280;46289;51.992;4.498;2023-03-23T15:29:56;100377.63;;;15.82;58.70
60437;BME280;46289;51.992;4.498;2023-03-23T15:32:04;100376.88;;;15.79;57.52
60437;BME280;46289;51.992;4.498;2023-03-23T15:34:15;100388.66;;;15.75;57.78
60437;BME280;46289;51.992;4.498;2023-03-23T15:36:21;100404.25;;;15.80;57.43
60437;BME280;46289;51.992;4.498;2023-03-23T15:38:32;100384.44;;;15.86;57.45
60437;BME280;46289;51.992;4.498;2023-03-23T15:40:39;100384.47;;;15.58;57.76
60437;BME280;46289;51.992;4.498;2023-03-23T15:42:47;100376.22;;;15.50;57.94
60437;BME280;46289;51.992;4.498;2023-03-23T15:44:58;100387.34;;;15.43;58.92
60437;BME280;46289;51.992;4.498;2023-03-23T15:47:13;100380.69;;;15.50;58.38
60437;BME280;46289;51.992;4.498;2023-03-23T15:49:25;100377.81;;;15.53;58.45
60437;BME280;46289;51.992;4.498;2023-03-23T15:51:30;100386.09;;;15.48;58.65
60437;BME280;46289;51.992;4.498;2023-03-23T15:53:39;100379.41;;;15.30;59.30
60437;BME280;46289;51.992;4.498;2023-03-23T15:55:45;100386.69;;;15.26;59.43
60437;BME280;46289;51.992;4.498;2023-03-23T15:57:52;100394.03;;;15.35;59.72
60437;BME280;46289;51.992;4.498;2023-03-23T15:59:57;100387.53;;;15.14;59.25
60437;BME280;46289;51.992;4.498;2023-03-23T16:02:02;100379.00;;;14.96;59.46
60437;BME280;46289;51.992;4.498;2023-03-23T16:04:12;100381.59;;;14.83;59.90
60437;BME280;46289;51.992;4.498;2023-03-23T16:06:21;100382.75;;;14.79;60.20